createdAt,value
2022-12-04T00:01:33.336Z,26.06
2022-12-04T00:04:03.857Z,26.05
2022-12-04T00:06:35.333Z,26.10
2022-12-04T00:09:06.866Z,26.12
2022-12-04T00:11:37.512Z,26.08
2022-12-04T00:14:11.135Z,26.09
2022-12-04T00:16:41.746Z,26.09
2022-12-04T00:19:12.020Z,26.10
2022-12-04T00:21:42.336Z,26.05
2022-12-04T00:24:12.726Z,26.02
2022-12-04T00:26:43.038Z,26.09
2022-12-04T00:29:13.317Z,26.05
2022-12-04T00:31:43.685Z,25.91
2022-12-04T00:34:14.107Z,25.93
2022-12-04T00:36:44.411Z,25.84
2022-12-04T00:39:14.594Z,25.68
2022-12-04T00:41:45.112Z,25.58
2022-12-04T00:44:15.172Z,25.68
2022-12-04T00:46:45.483Z,25.72
2022-12-04T00:49:15.797Z,25.78
2022-12-04T00:51:46.076Z,25.78
2022-12-04T00:54:16.375Z,25.74
2022-12-04T00:56:46.533Z,25.71
2022-12-04T00:59:16.828Z,25.69
2022-12-04T01:01:47.213Z,25.62
2022-12-04T01:04:17.517Z,25.60
2022-12-04T01:06:48.824Z,25.61
2022-12-04T01:09:20.092Z,25.61
2022-12-04T01:11:50.349Z,25.60
2022-12-04T01:14:20.506Z,25.57
2022-12-04T01:16:51.297Z,25.55
2022-12-04T01:19:21.649Z,25.54
2022-12-04T01:21:51.290Z,25.55
2022-12-04T01:24:21.296Z,25.52
2022-12-04T01:26:51.662Z,25.50
2022-12-04T01:29:21.925Z,25.47
2022-12-04T01:31:52.402Z,25.45
2022-12-04T01:34:22.739Z,25.41
2022-12-04T01:36:54.005Z,25.38
2022-12-04T01:39:24.411Z,25.38
2022-12-04T01:41:54.975Z,25.35
2022-12-04T01:44:27.635Z,25.19
2022-12-04T01:47:00.769Z,25.17
2022-12-04T01:49:37.957Z,25.14
2022-12-04T01:52:19.788Z,25.14
2022-12-04T01:55:02.382Z,25.14
2022-12-04T01:57:34.417Z,25.16
2022-12-04T02:00:11.727Z,25.17
2022-12-04T02:02:45.307Z,25.26
2022-12-04T02:05:19.681Z,25.28
2022-12-04T02:07:53.424Z,25.09
2022-12-04T02:10:29.344Z,25.03
2022-12-04T02:13:11.493Z,25.09
2022-12-04T02:15:54.369Z,25.10
2022-12-04T02:18:52.173Z,25.03
2022-12-04T02:21:39.548Z,24.97
2022-12-04T02:24:25.016Z,25.00
2022-12-04T02:27:29.171Z,24.97
2022-12-04T02:30:06.739Z,25.04
2022-12-04T02:32:58.513Z,25.16
2022-12-04T02:35:57.914Z,25.04
2022-12-04T02:38:49.573Z,24.89
2022-12-04T02:41:29.972Z,24.96
2022-12-04T02:44:06.606Z,24.96
2022-12-04T02:46:41.685Z,24.94
2022-12-04T02:49:20.335Z,24.91
2022-12-04T02:51:53.121Z,24.89
2022-12-04T02:54:37.807Z,24.93
2022-12-04T02:57:13.626Z,24.96
2022-12-04T02:59:46.728Z,25.02
2022-12-04T03:02:35.149Z,24.94
2022-12-04T03:05:11.448Z,24.82
2022-12-04T03:08:01.423Z,24.82
2022-12-04T03:10:43.364Z,24.77
2022-12-04T03:13:22.987Z,24.75
2022-12-04T03:16:26.149Z,24.68
2022-12-04T03:18:59.332Z,24.66
2022-12-04T03:21:35.118Z,24.66
2022-12-04T03:24:15.200Z,24.69
2022-12-04T03:26:49.366Z,24.65
2022-12-04T03:29:33.329Z,24.59
2022-12-04T03:32:16.035Z,24.53
2022-12-04T03:34:58.675Z,24.51
2022-12-04T03:37:39.422Z,24.65
2022-12-04T03:40:27.987Z,24.63
2022-12-04T03:43:03.923Z,24.63
2022-12-04T03:45:45.438Z,24.56
2022-12-04T03:48:23.139Z,24.55
2022-12-04T03:51:10.714Z,24.49
2022-12-04T03:53:49.515Z,24.49
2022-12-04T03:56:32.114Z,24.48
2022-12-04T03:59:10.543Z,24.45
2022-12-04T04:01:48.393Z,24.40
2022-12-04T04:04:24.291Z,24.38
2022-12-04T04:07:03.126Z,24.39
2022-12-04T04:09:38.845Z,24.39
2022-12-04T04:12:16.803Z,24.39
2022-12-04T04:15:07.823Z,24.36
2022-12-04T04:18:09.019Z,24.29
2022-12-04T04:21:08.485Z,24.28
2022-12-04T04:24:03.581Z,24.26
2022-12-04T04:26:39.836Z,24.24
2022-12-04T04:29:11.430Z,24.25
2022-12-04T04:32:02.770Z,24.24
2022-12-04T04:34:48.629Z,24.25
2022-12-04T04:37:43.579Z,24.19
2022-12-04T04:40:22.454Z,24.19
2022-12-04T04:43:01.694Z,24.18
2022-12-04T04:46:14.949Z,24.15
2022-12-04T04:48:50.308Z,24.14
2022-12-04T04:51:22.255Z,24.08
2022-12-04T04:53:55.670Z,24.05
2022-12-04T04:56:26.757Z,24.00
2022-12-04T04:58:57.109Z,24.04
2022-12-04T05:01:30.665Z,24.04
2022-12-04T05:04:00.985Z,24.04
2022-12-04T05:06:31.291Z,24.07
2022-12-04T05:09:01.928Z,24.05
2022-12-04T05:11:32.409Z,24.01
2022-12-04T05:14:02.508Z,24.01
2022-12-04T05:16:33.797Z,24.01
2022-12-04T05:19:22.245Z,24.01
2022-12-04T05:21:52.518Z,23.98
2022-12-04T05:24:22.684Z,24.00
2022-12-04T05:26:53.283Z,24.01
2022-12-04T05:29:23.667Z,23.98
2022-12-04T05:31:53.768Z,23.94
2022-12-04T05:34:23.904Z,23.97
2022-12-04T05:36:54.668Z,24.00
2022-12-04T05:39:24.959Z,24.00
2022-12-04T05:41:55.264Z,24.04
2022-12-04T05:44:25.558Z,24.05
2022-12-04T05:46:55.836Z,24.05
2022-12-04T05:49:26.414Z,24.00
2022-12-04T05:51:56.754Z,24.02
2022-12-04T05:54:27.117Z,24.00
2022-12-04T05:56:58.512Z,24.04
2022-12-04T05:59:28.786Z,24.12
2022-12-04T06:01:59.093Z,24.19
2022-12-04T06:04:29.644Z,24.17
2022-12-04T06:07:00.032Z,24.07
2022-12-04T06:09:30.471Z,24.11
2022-12-04T06:12:01.043Z,24.18
2022-12-04T06:14:36.214Z,24.22
2022-12-04T06:17:09.464Z,24.22
2022-12-04T06:19:39.792Z,24.18
2022-12-04T06:22:10.147Z,24.22
2022-12-04T06:24:41.054Z,24.21
2022-12-04T06:27:27.291Z,24.21
2022-12-04T06:29:58.404Z,24.21
2022-12-04T06:32:29.030Z,24.26
2022-12-04T06:34:59.220Z,24.28
2022-12-04T06:37:29.572Z,24.26
2022-12-04T06:39:59.912Z,24.26
2022-12-04T06:42:30.536Z,24.28
2022-12-04T06:45:00.781Z,24.25
2022-12-04T06:47:31.079Z,24.26
2022-12-04T06:50:01.506Z,24.25
2022-12-04T06:52:31.379Z,24.26
2022-12-04T06:55:01.896Z,24.25
2022-12-04T06:57:32.833Z,24.22
2022-12-04T07:00:02.487Z,24.25
2022-12-04T07:02:32.497Z,24.22
2022-12-04T07:05:02.764Z,24.21
2022-12-04T07:07:33.226Z,24.21
2022-12-04T07:10:04.574Z,24.24
2022-12-04T07:12:34.948Z,24.22
2022-12-04T07:15:05.391Z,24.22
2022-12-04T07:17:35.680Z,24.26
2022-12-04T07:20:07.615Z,24.22
2022-12-04T07:22:38.285Z,24.22
2022-12-04T07:25:08.514Z,24.17
2022-12-04T07:27:39.268Z,24.12
2022-12-04T07:30:15.350Z,24.14
2022-12-04T07:32:46.081Z,24.15
2022-12-04T07:35:16.339Z,24.11
2022-12-04T07:37:46.689Z,24.05
2022-12-04T07:40:17.050Z,24.09
2022-12-04T07:42:47.398Z,24.05
2022-12-04T07:45:17.773Z,24.05
2022-12-04T07:47:48.185Z,24.05
2022-12-04T07:50:18.565Z,24.05
2022-12-04T07:52:48.884Z,24.07
2022-12-04T07:55:23.134Z,24.05
2022-12-04T07:57:53.712Z,24.01
2022-12-04T08:00:24.289Z,23.97
2022-12-04T08:02:54.794Z,23.87
2022-12-04T08:05:25.015Z,23.78
2022-12-04T08:07:55.835Z,23.77
2022-12-04T08:10:26.116Z,23.85
2022-12-04T08:12:56.561Z,23.88
2022-12-04T08:15:26.816Z,23.88
2022-12-04T08:17:57.119Z,23.81
2022-12-04T08:20:27.399Z,23.77
2022-12-04T08:22:57.740Z,23.70
2022-12-04T08:25:28.898Z,23.66
2022-12-04T08:27:59.541Z,23.67
2022-12-04T08:30:29.836Z,23.70
2022-12-04T08:33:00.155Z,23.77
2022-12-04T08:35:30.663Z,23.73
2022-12-04T08:38:00.990Z,23.74
2022-12-04T08:40:31.351Z,23.81
2022-12-04T08:43:04.113Z,23.84
2022-12-04T08:45:34.413Z,23.87
2022-12-04T08:48:04.780Z,23.84
2022-12-04T08:50:35.108Z,23.81
2022-12-04T08:53:05.430Z,23.82
2022-12-04T08:55:36.528Z,23.93
2022-12-04T08:58:06.880Z,23.87
2022-12-04T09:00:37.329Z,23.78
2022-12-04T09:03:07.809Z,23.87
2022-12-04T09:05:38.022Z,23.90
2022-12-04T09:08:08.550Z,24.01
2022-12-04T09:10:39.539Z,24.07
2022-12-04T09:13:10.696Z,24.12
2022-12-04T09:15:41.954Z,24.15
2022-12-04T09:18:12.521Z,24.22
2022-12-04T09:20:42.832Z,24.18
2022-12-04T09:23:13.116Z,24.18
2022-12-04T09:25:43.467Z,24.26
2022-12-04T09:28:14.055Z,24.47
2022-12-04T09:30:44.406Z,24.59
2022-12-04T09:33:14.021Z,24.66
2022-12-04T09:35:44.185Z,24.84
2022-12-04T09:38:14.510Z,24.90
2022-12-04T09:41:16.420Z,24.83
2022-12-04T09:44:03.232Z,24.83
2022-12-04T09:46:51.035Z,24.80
2022-12-04T09:49:44.928Z,24.79
2022-12-04T09:52:59.525Z,24.72
2022-12-04T09:55:35.292Z,24.73
2022-12-04T09:58:11.704Z,24.90
2022-12-04T10:00:44.649Z,24.97
2022-12-04T10:03:20.836Z,24.82
2022-12-04T10:06:01.051Z,24.79
2022-12-04T10:08:40.782Z,24.89
2022-12-04T10:11:20.697Z,24.80
2022-12-04T10:14:24.182Z,24.83
2022-12-04T10:17:15.020Z,24.86
2022-12-04T10:19:54.601Z,24.86
2022-12-04T10:22:40.491Z,24.80
2022-12-04T10:25:19.587Z,24.80
2022-12-04T10:27:56.012Z,24.91
2022-12-04T10:30:30.108Z,25.00
2022-12-04T10:33:09.847Z,25.02
2022-12-04T10:35:43.554Z,25.10
2022-12-04T10:38:23.681Z,25.14
2022-12-04T10:41:10.269Z,25.02
2022-12-04T10:43:50.214Z,25.06
2022-12-04T10:46:28.374Z,25.06
2022-12-04T10:49:04.182Z,25.09
2022-12-04T10:51:42.027Z,25.13
2022-12-04T10:54:26.832Z,25.33
2022-12-04T10:57:02.596Z,25.50
2022-12-04T10:59:33.948Z,25.54
2022-12-04T11:02:25.103Z,25.61
2022-12-04T11:04:59.620Z,25.74
2022-12-04T11:07:32.594Z,25.78
2022-12-04T11:10:07.463Z,25.91
2022-12-04T11:12:37.695Z,26.18
2022-12-04T11:15:11.353Z,26.15
2022-12-04T11:17:41.760Z,26.12
2022-12-04T11:20:23.245Z,26.10
2022-12-04T11:22:58.345Z,26.06
2022-12-04T11:25:38.780Z,26.10
2022-12-04T11:28:39.737Z,26.19
2022-12-04T11:31:11.140Z,26.39
2022-12-04T11:34:07.801Z,26.43
2022-12-04T11:36:44.870Z,26.44
2022-12-04T11:39:16.760Z,26.73
2022-12-04T11:41:47.187Z,26.87
2022-12-04T11:44:32.156Z,26.97
2022-12-04T11:47:04.538Z,27.12
2022-12-04T11:49:37.419Z,27.21
2022-12-04T11:52:39.427Z,27.52
2022-12-04T11:55:15.307Z,27.67
2022-12-04T11:58:08.466Z,27.69
2022-12-04T12:00:48.701Z,27.78
2022-12-04T12:03:38.857Z,28.13
2022-12-04T12:06:28.369Z,28.41
2022-12-04T12:08:58.590Z,28.41
2022-12-04T12:11:43.154Z,28.20
2022-12-04T12:14:48.674Z,28.10
2022-12-04T12:17:42.036Z,28.39
2022-12-04T12:20:36.651Z,28.61
2022-12-04T12:23:12.822Z,28.69
2022-12-04T12:26:02.713Z,28.90
2022-12-04T12:28:44.994Z,28.96
2022-12-04T12:31:24.078Z,29.19
2022-12-04T12:34:06.872Z,28.95
2022-12-04T12:36:47.604Z,28.75
2022-12-04T12:39:32.670Z,28.61
2022-12-04T12:42:03.506Z,28.55
2022-12-04T12:44:50.367Z,28.50
2022-12-04T12:47:39.532Z,28.43
2022-12-04T12:50:17.881Z,28.48
2022-12-04T12:53:12.492Z,28.71
2022-12-04T12:55:53.888Z,28.76
2022-12-04T12:58:41.821Z,28.67
2022-12-04T13:01:45.568Z,28.78
2022-12-04T13:04:36.749Z,28.99
2022-12-04T13:07:19.303Z,29.12
2022-12-04T13:10:15.503Z,29.01
2022-12-04T13:13:03.831Z,28.78
2022-12-04T13:15:58.580Z,29.06
2022-12-04T13:18:33.059Z,29.18
2022-12-04T13:21:08.331Z,29.26
2022-12-04T13:23:53.950Z,29.36
2022-12-04T13:26:44.872Z,30.15
2022-12-04T13:29:52.228Z,30.38
2022-12-04T13:32:27.377Z,30.45
2022-12-04T13:35:34.345Z,30.28
2022-12-04T13:38:23.300Z,30.14
2022-12-04T13:40:55.427Z,30.01
2022-12-04T13:43:40.320Z,30.00
2022-12-04T13:46:30.834Z,30.23
2022-12-04T13:49:19.392Z,30.56
2022-12-04T13:51:50.872Z,30.35
2022-12-04T13:54:26.296Z,30.38
2022-12-04T13:57:23.320Z,30.13
2022-12-04T14:00:09.510Z,29.97
2022-12-04T14:02:52.368Z,29.73
2022-12-04T14:05:34.358Z,29.49
2022-12-04T14:08:09.897Z,29.40
2022-12-04T14:10:41.270Z,29.49
2022-12-04T14:13:14.487Z,29.56
2022-12-04T14:15:45.268Z,29.29
2022-12-04T14:18:15.546Z,29.03
2022-12-04T14:20:46.539Z,29.11
2022-12-04T14:23:23.937Z,29.18
2022-12-04T14:26:00.091Z,29.15
2022-12-04T14:28:29.813Z,29.35
2022-12-04T14:31:34.581Z,29.49
2022-12-04T14:34:13.631Z,29.36
2022-12-04T14:36:46.060Z,29.46
2022-12-04T14:39:29.443Z,29.50
2022-12-04T14:42:16.989Z,29.30
2022-12-04T14:44:49.160Z,28.98
2022-12-04T14:47:41.300Z,28.94
2022-12-04T14:50:40.781Z,29.20
2022-12-04T14:53:50.210Z,29.50
2022-12-04T14:56:51.788Z,29.87
2022-12-04T14:59:27.601Z,29.96
2022-12-04T15:01:58.038Z,29.76
2022-12-04T15:04:36.921Z,29.84
2022-12-04T15:07:07.982Z,29.69
2022-12-04T15:09:56.429Z,29.60
2022-12-04T15:12:36.033Z,29.52
2022-12-04T15:15:18.770Z,29.40
2022-12-04T15:18:01.851Z,29.30
2022-12-04T15:20:57.576Z,29.22
2022-12-04T15:23:33.804Z,29.26
2022-12-04T15:26:08.160Z,29.12
2022-12-04T15:28:48.616Z,28.65
2022-12-04T15:31:25.447Z,28.37
2022-12-04T15:34:01.935Z,28.41
2022-12-04T15:36:56.064Z,28.33
2022-12-04T15:39:29.639Z,28.21
2022-12-04T15:42:28.391Z,28.13
2022-12-04T15:45:25.328Z,28.10
2022-12-04T15:47:57.125Z,28.07
2022-12-04T15:50:29.642Z,27.99
2022-12-04T15:53:09.846Z,27.97
2022-12-04T15:55:53.937Z,27.96
2022-12-04T15:58:37.355Z,27.96
2022-12-04T16:01:10.844Z,27.93
2022-12-04T16:03:44.368Z,27.85
2022-12-04T16:06:20.812Z,27.86
2022-12-04T16:08:56.422Z,27.86
2022-12-04T16:11:40.977Z,27.89
2022-12-04T16:14:11.224Z,27.94
2022-12-04T16:16:47.312Z,28.03
2022-12-04T16:19:26.846Z,28.14
2022-12-04T16:22:00.773Z,28.30
2022-12-04T16:24:31.065Z,28.41
2022-12-04T16:27:02.835Z,28.34
2022-12-04T16:29:33.189Z,28.25
2022-12-04T16:32:03.861Z,28.12
2022-12-04T16:34:34.580Z,27.99
2022-12-04T16:37:13.508Z,27.99
2022-12-04T16:39:44.106Z,27.83
2022-12-04T16:42:26.371Z,27.81
2022-12-04T16:44:57.805Z,27.72
2022-12-04T16:47:28.336Z,27.63
2022-12-04T16:49:58.781Z,27.53
2022-12-04T16:52:29.104Z,27.48
2022-12-04T16:55:04.436Z,27.42
2022-12-04T16:57:35.342Z,27.32
2022-12-04T17:00:06.069Z,27.30
2022-12-04T17:02:36.720Z,27.22
2022-12-04T17:05:07.348Z,27.08
2022-12-04T17:07:37.640Z,26.61
2022-12-04T17:10:08.746Z,26.13
2022-12-04T17:12:39.049Z,25.79
2022-12-04T17:15:10.237Z,25.74
2022-12-04T17:17:41.144Z,25.54
2022-12-04T17:20:19.283Z,25.52
2022-12-04T17:22:50.649Z,25.44
2022-12-04T17:25:21.083Z,25.48
2022-12-04T17:27:51.829Z,25.44
2022-12-04T17:30:22.327Z,25.40
2022-12-04T17:32:52.762Z,25.38
2022-12-04T17:35:22.873Z,25.24
2022-12-04T17:37:53.269Z,25.17
2022-12-04T17:40:23.415Z,25.09
2022-12-04T17:42:53.765Z,25.06
2022-12-04T17:45:24.590Z,25.13
2022-12-04T17:47:54.851Z,25.17
2022-12-04T17:50:25.552Z,25.09
2022-12-04T17:52:55.916Z,25.20
2022-12-04T17:55:26.257Z,25.21
2022-12-04T17:57:56.371Z,25.09
2022-12-04T18:00:27.453Z,25.20
2022-12-04T18:02:57.901Z,25.31
2022-12-04T18:05:30.033Z,25.27
2022-12-04T18:08:00.438Z,25.21
2022-12-04T18:10:30.850Z,25.00
2022-12-04T18:13:01.172Z,24.89
2022-12-04T18:15:31.602Z,24.69
2022-12-04T18:18:01.072Z,24.52
2022-12-04T18:20:30.969Z,24.28
2022-12-04T18:23:01.267Z,24.01
2022-12-04T18:25:31.504Z,23.90
2022-12-04T18:28:02.426Z,23.61
2022-12-04T18:30:32.801Z,23.60
2022-12-04T18:33:03.561Z,23.56
2022-12-04T18:35:33.761Z,23.49
2022-12-04T18:38:04.007Z,23.33
2022-12-04T18:40:37.347Z,23.30
2022-12-04T18:43:07.647Z,23.31
2022-12-04T18:45:38.001Z,23.34
2022-12-04T18:48:08.643Z,23.36
2022-12-04T18:50:39.132Z,23.39
2022-12-04T18:53:11.492Z,23.45
2022-12-04T18:55:41.698Z,23.42
2022-12-04T18:58:11.984Z,23.51
2022-12-04T19:00:42.554Z,23.53
2022-12-04T19:03:13.382Z,23.64
2022-12-04T19:05:53.126Z,23.73
2022-12-04T19:08:24.673Z,23.80
2022-12-04T19:10:57.789Z,23.93
2022-12-04T19:13:28.119Z,24.18
2022-12-04T19:15:58.430Z,24.25
2022-12-04T19:18:29.321Z,24.21
2022-12-04T19:21:00.010Z,24.25
2022-12-04T19:23:30.421Z,24.26
2022-12-04T19:26:02.176Z,24.19
2022-12-04T19:28:33.191Z,24.35
2022-12-04T19:31:03.536Z,24.48
2022-12-04T19:33:33.969Z,24.59
2022-12-04T19:36:06.354Z,24.59
2022-12-04T19:38:36.952Z,24.51
2022-12-04T19:41:11.413Z,24.62
2022-12-04T19:43:48.484Z,24.65
2022-12-04T19:46:22.648Z,24.77
2022-12-04T19:48:55.039Z,24.77
2022-12-04T19:51:25.667Z,24.73
2022-12-04T19:53:57.049Z,24.47
2022-12-04T19:56:28.895Z,24.43
2022-12-04T19:59:04.451Z,24.53
2022-12-04T20:01:36.854Z,24.36
2022-12-04T20:04:09.342Z,24.25
2022-12-04T20:06:46.609Z,24.24
2022-12-04T20:09:21.191Z,24.22
2022-12-04T20:11:51.572Z,24.25
2022-12-04T20:14:21.987Z,24.32
2022-12-04T20:16:52.869Z,24.30
2022-12-04T20:19:23.188Z,24.29
2022-12-04T20:21:59.316Z,24.24
2022-12-04T20:24:29.931Z,24.38
2022-12-04T20:27:00.314Z,24.48
2022-12-04T20:29:33.658Z,24.33
2022-12-04T20:32:05.472Z,24.40
2022-12-04T20:34:38.856Z,24.52
2022-12-04T20:37:13.406Z,24.56
2022-12-04T20:39:43.850Z,24.63
2022-12-04T20:42:14.231Z,24.53
2022-12-04T20:44:44.528Z,24.56
2022-12-04T20:47:14.830Z,24.62
2022-12-04T20:49:45.479Z,24.47
2022-12-04T20:52:15.814Z,24.26
2022-12-04T20:54:46.249Z,24.02
2022-12-04T20:57:16.596Z,23.91
2022-12-04T20:59:46.215Z,23.82
2022-12-04T21:02:16.289Z,23.85
2022-12-04T21:04:46.639Z,23.88
2022-12-04T21:07:17.038Z,23.98
2022-12-04T21:09:47.429Z,23.93
2022-12-04T21:12:39.906Z,23.84
2022-12-04T21:15:39.444Z,23.75
2022-12-04T21:18:09.860Z,23.63
2022-12-04T21:20:40.825Z,23.74
2022-12-04T21:23:11.115Z,23.82
2022-12-04T21:25:41.466Z,23.74
2022-12-04T21:28:11.862Z,23.78
2022-12-04T21:30:42.214Z,23.82
2022-12-04T21:33:12.134Z,23.90
2022-12-04T21:35:42.397Z,23.81
2022-12-04T21:38:12.743Z,23.75
2022-12-04T21:40:43.030Z,23.73
2022-12-04T21:43:13.241Z,23.75
2022-12-04T21:45:43.461Z,23.73
2022-12-04T21:48:13.868Z,23.71
2022-12-04T21:50:44.482Z,23.68
2022-12-04T21:53:14.775Z,23.66
2022-12-04T21:55:57.269Z,23.54
2022-12-04T21:58:29.784Z,23.51
2022-12-04T22:01:00.027Z,23.53
2022-12-04T22:03:30.296Z,23.39
2022-12-04T22:06:02.062Z,23.31
2022-12-04T22:08:32.550Z,23.31
2022-12-04T22:11:02.679Z,23.23
2022-12-04T22:13:33.033Z,23.17
2022-12-04T22:16:09.674Z,23.17
2022-12-04T22:18:40.123Z,23.19
2022-12-04T22:21:13.345Z,23.08
2022-12-04T22:23:43.822Z,23.15
2022-12-04T22:26:20.686Z,23.24
2022-12-04T22:28:51.242Z,23.12
2022-12-04T22:31:24.012Z,23.10
2022-12-04T22:33:56.543Z,23.13
2022-12-04T22:36:29.425Z,23.16
2022-12-04T22:39:09.222Z,23.17
2022-12-04T22:41:40.465Z,23.12
2022-12-04T22:44:10.729Z,23.03
2022-12-04T22:46:41.098Z,22.98
2022-12-04T22:49:11.525Z,22.92
2022-12-04T22:51:42.137Z,22.98
2022-12-04T22:54:16.442Z,23.00
2022-12-04T22:56:46.875Z,22.94
2022-12-04T22:59:17.112Z,22.99
2022-12-04T23:01:47.424Z,23.05
2022-12-04T23:04:17.756Z,23.02
2022-12-04T23:06:48.160Z,23.06
2022-12-04T23:09:19.291Z,23.08
2022-12-04T23:11:53.977Z,22.85
2022-12-04T23:14:24.726Z,22.78
2022-12-04T23:16:55.378Z,22.78
2022-12-04T23:19:25.889Z,22.76
2022-12-04T23:21:57.374Z,22.78
2022-12-04T23:24:28.153Z,22.73
2022-12-04T23:26:58.418Z,22.86
2022-12-04T23:32:18.965Z,23.09
2022-12-04T23:34:48.467Z,23.13
2022-12-04T23:37:18.506Z,23.13
2022-12-04T23:39:48.752Z,23.19
2022-12-04T23:42:18.896Z,23.27
2022-12-04T23:44:49.234Z,23.33
2022-12-04T23:47:19.622Z,23.36
2022-12-04T23:49:49.899Z,23.37
2022-12-04T23:52:20.525Z,23.33
2022-12-04T23:54:50.861Z,23.33
2022-12-04T23:57:21.407Z,23.30
2022-12-04T23:59:51.511Z,23.30
